createdAt,value
2017-09-05T00:02:13.399Z,9.77
2017-09-05T00:04:41.940Z,9.57
2017-09-05T00:07:11.861Z,8.90
2017-09-05T00:09:46.525Z,9.63
2017-09-05T00:12:20.952Z,9.38
2017-09-05T00:14:49.869Z,8.82
2017-09-05T00:30:38.181Z,6.78
2017-09-05T00:33:06.960Z,7.60
2017-09-05T00:35:34.969Z,8.38
2017-09-05T00:38:03.905Z,8.00
2017-09-05T00:40:31.913Z,7.85
2017-09-05T00:42:59.941Z,9.07
2017-09-05T00:45:32.216Z,9.43
2017-09-05T00:48:01.209Z,9.15
2017-09-05T00:50:29.220Z,8.30
2017-09-05T00:52:57.259Z,8.05
2017-09-05T00:55:25.273Z,7.87
2017-09-05T00:57:53.296Z,9.00
2017-09-05T01:00:21.328Z,8.93
2017-09-05T01:02:50.344Z,8.95
2017-09-05T01:05:18.396Z,8.80
2017-09-05T01:07:47.204Z,9.13
2017-09-05T01:10:15.221Z,10.05
2017-09-05T01:12:43.240Z,10.35
2017-09-05T01:15:11.272Z,10.43
2017-09-05T01:17:40.204Z,10.00
2017-09-05T01:20:08.229Z,12.37
2017-09-05T01:22:37.045Z,9.68
2017-09-05T01:25:05.069Z,8.02
2017-09-05T01:27:33.077Z,8.98
2017-09-05T01:30:01.120Z,12.18
2017-09-05T01:32:29.140Z,9.50
2017-09-05T01:34:57.160Z,8.73
2017-09-05T01:37:26.960Z,14.27
2017-09-05T01:39:55.912Z,10.13
2017-09-05T01:42:41.457Z,11.70
2017-09-05T01:45:12.888Z,13.85
2017-09-05T01:47:41.008Z,9.77
2017-09-05T01:50:09.057Z,10.27
2017-09-05T01:52:37.053Z,11.38
2017-09-05T01:55:05.090Z,9.73
2017-09-05T01:57:33.100Z,9.80
2017-09-05T02:00:02.088Z,9.02
2017-09-05T02:02:30.101Z,9.75
2017-09-05T02:04:58.116Z,9.55
2017-09-05T02:07:27.112Z,9.45
2017-09-05T02:09:55.148Z,9.95
2017-09-05T02:12:24.072Z,12.37
2017-09-05T02:14:53.068Z,12.37
2017-09-05T02:17:21.112Z,14.25
2017-09-05T02:19:50.138Z,12.18
2017-09-05T02:22:19.124Z,14.20
2017-09-05T02:24:48.132Z,15.13
2017-09-05T02:27:17.100Z,14.95
2017-09-05T02:29:46.108Z,12.70
2017-09-05T02:32:15.112Z,14.73
2017-09-05T02:34:44.089Z,12.65
2017-09-05T02:37:17.392Z,9.43
2017-09-05T02:39:45.400Z,9.50
2017-09-05T02:42:13.412Z,10.23
2017-09-05T02:44:44.572Z,11.40
2017-09-05T02:47:12.592Z,14.82
2017-09-05T02:49:40.615Z,13.93
2017-09-05T02:52:08.656Z,11.80
2017-09-05T02:54:36.684Z,12.13
2017-09-05T02:57:04.707Z,11.40
2017-09-05T02:59:33.728Z,13.20
2017-09-05T03:02:02.516Z,10.40
2017-09-05T03:04:31.299Z,11.30
2017-09-05T03:06:59.339Z,20.65
2017-09-05T03:09:28.343Z,16.83
2017-09-05T03:11:57.332Z,14.07
2017-09-05T03:14:25.356Z,17.02
2017-09-05T03:16:53.379Z,18.15
2017-09-05T03:19:24.107Z,17.48
2017-09-05T03:21:52.523Z,13.40
2017-09-05T03:24:20.515Z,13.13
2017-09-05T03:26:49.543Z,14.40
2017-09-05T03:29:17.579Z,12.45
2017-09-05T03:31:47.315Z,11.68
2017-09-05T03:34:15.359Z,14.87
2017-09-05T03:36:44.395Z,17.87
2017-09-05T03:39:12.415Z,18.00
2017-09-05T03:41:40.428Z,18.40
2017-09-05T03:44:11.887Z,18.55
2017-09-05T03:46:39.895Z,18.08
2017-09-05T03:49:07.912Z,21.33
2017-09-05T03:51:35.943Z,18.95
2017-09-05T03:54:03.963Z,17.25
2017-09-05T03:56:33.959Z,19.85
2017-09-05T03:59:01.995Z,11.75
2017-09-05T04:01:30.915Z,10.68
2017-09-05T04:03:59.918Z,13.02
2017-09-05T04:06:27.967Z,12.77
2017-09-05T04:08:55.987Z,11.88
2017-09-05T04:11:24.770Z,22.50
2017-09-05T04:13:53.575Z,26.30
2017-09-05T04:16:21.595Z,26.23
2017-09-05T04:18:50.394Z,16.75
2017-09-05T04:21:21.959Z,13.35
2017-09-05T04:23:50.927Z,14.15
2017-09-05T04:26:23.726Z,12.88
2017-09-05T04:28:51.743Z,15.38
2017-09-05T04:31:19.763Z,15.38
2017-09-05T04:33:47.803Z,14.77
2017-09-05T04:36:16.815Z,13.30
2017-09-05T04:38:46.863Z,13.80
2017-09-05T04:41:14.955Z,14.20
2017-09-05T04:43:43.898Z,14.87
2017-09-05T04:46:11.935Z,16.30
2017-09-05T04:48:41.887Z,14.73
2017-09-05T04:51:09.919Z,15.07
2017-09-05T04:53:39.899Z,17.08
2017-09-05T04:56:08.858Z,15.48
2017-09-05T04:58:43.090Z,14.30
2017-09-05T05:01:14.220Z,15.00
2017-09-05T05:03:42.259Z,19.83
2017-09-05T05:06:11.990Z,12.85
2017-09-05T05:08:40.923Z,15.73
2017-09-05T05:11:08.974Z,15.15
2017-09-05T05:13:38.984Z,13.70
2017-09-05T05:16:07.058Z,13.25
2017-09-05T05:18:35.082Z,13.73
2017-09-05T05:21:03.114Z,15.38
2017-09-05T05:23:31.155Z,15.32
2017-09-05T05:26:00.158Z,14.60
2017-09-05T05:28:29.139Z,15.38
2017-09-05T05:30:58.139Z,17.05
2017-09-05T05:33:26.210Z,14.75
2017-09-05T05:35:55.205Z,16.50
2017-09-05T05:38:23.234Z,14.57
2017-09-05T05:40:51.298Z,13.93
2017-09-05T05:43:20.329Z,11.85
2017-09-05T05:45:48.358Z,13.60
2017-09-05T05:48:16.398Z,13.57
2017-09-05T05:50:46.194Z,13.30
2017-09-05T05:53:16.222Z,12.33
2017-09-05T05:55:46.010Z,11.27
2017-09-05T05:58:14.054Z,9.97
2017-09-05T06:00:43.114Z,10.40
2017-09-05T06:03:13.557Z,9.70
2017-09-05T06:05:41.586Z,9.90
2017-09-05T06:08:10.582Z,9.73
2017-09-05T06:10:40.575Z,10.60
2017-09-05T06:13:09.566Z,9.47
2017-09-05T06:15:37.625Z,10.43
2017-09-05T06:18:06.042Z,10.30
2017-09-05T06:20:34.830Z,10.17
2017-09-05T06:23:04.641Z,13.27
2017-09-05T06:25:32.682Z,10.97
2017-09-05T06:28:01.675Z,9.50
2017-09-05T06:30:33.970Z,9.90
2017-09-05T06:33:06.621Z,10.33
2017-09-05T06:35:34.658Z,9.53
2017-09-05T06:38:03.438Z,8.97
2017-09-05T06:40:31.454Z,9.33
2017-09-05T06:43:02.698Z,8.87
2017-09-05T06:45:31.605Z,8.13
2017-09-05T06:47:59.625Z,13.20
2017-09-05T06:50:27.658Z,8.97
2017-09-05T06:52:56.445Z,9.00
2017-09-05T06:55:25.225Z,8.03
2017-09-05T06:57:54.137Z,7.97
2017-09-05T07:00:22.117Z,7.20
2017-09-05T07:02:50.146Z,7.70
2017-09-05T07:05:19.126Z,7.57
2017-09-05T07:07:49.134Z,7.20
2017-09-05T07:10:20.389Z,7.07
2017-09-05T07:12:48.421Z,10.67
2017-09-05T07:15:16.450Z,18.53
2017-09-05T07:17:47.466Z,9.20
2017-09-05T07:20:15.494Z,8.00
2017-09-05T07:22:44.529Z,8.23
2017-09-05T07:25:12.669Z,11.60
2017-09-05T07:27:40.681Z,7.60
2017-09-05T07:30:08.705Z,7.80
2017-09-05T07:32:41.345Z,8.07
2017-09-05T07:35:10.514Z,7.47
2017-09-05T07:37:38.486Z,6.77
2017-09-05T07:40:06.513Z,6.30
2017-09-05T07:42:34.529Z,7.10
2017-09-05T07:45:02.553Z,8.00
2017-09-05T07:47:31.489Z,6.87
2017-09-05T07:50:02.353Z,7.17
2017-09-05T07:52:31.325Z,7.20
2017-09-05T07:55:00.296Z,6.50
2017-09-05T07:57:28.997Z,6.43
2017-09-05T07:59:57.989Z,7.57
2017-09-05T08:02:26.013Z,6.60
2017-09-05T08:04:54.036Z,8.37
2017-09-05T08:07:22.073Z,6.60
2017-09-05T08:09:50.093Z,9.00
2017-09-05T08:12:19.057Z,8.40
2017-09-05T08:14:47.084Z,7.03
2017-09-05T08:17:17.001Z,6.87
2017-09-05T08:19:45.033Z,6.90
2017-09-05T08:22:13.092Z,7.90
2017-09-05T08:24:45.673Z,7.23
2017-09-05T08:27:13.697Z,6.13
2017-09-05T08:29:43.596Z,6.50
2017-09-05T08:32:11.612Z,6.03
2017-09-05T08:34:40.596Z,6.80
2017-09-05T08:37:09.588Z,24.13
2017-09-05T08:39:39.494Z,6.13
2017-09-05T08:42:07.520Z,5.80
2017-09-05T08:44:36.838Z,5.40
2017-09-05T08:47:05.368Z,6.77
2017-09-05T08:49:34.357Z,6.70
2017-09-05T08:52:03.332Z,5.93
2017-09-05T08:54:31.352Z,6.07
2017-09-05T08:56:59.380Z,6.80
2017-09-05T08:59:27.396Z,5.80
2017-09-05T09:01:55.412Z,6.30
2017-09-05T09:04:26.564Z,5.70
2017-09-05T09:06:54.592Z,6.50
2017-09-05T09:09:22.604Z,5.43
2017-09-05T09:11:50.632Z,5.50
2017-09-05T09:14:18.652Z,5.30
2017-09-05T09:16:46.668Z,5.40
2017-09-05T09:19:17.960Z,6.60
2017-09-05T09:21:45.988Z,5.10
2017-09-05T09:24:15.900Z,5.47
2017-09-05T09:26:48.548Z,4.60
2017-09-05T09:29:16.832Z,5.67
2017-09-05T09:31:44.860Z,5.63
2017-09-05T09:34:14.276Z,4.63
2017-09-05T09:36:43.255Z,6.10
2017-09-05T09:39:11.286Z,7.27
2017-09-05T09:41:40.215Z,4.30
2017-09-05T09:44:09.199Z,6.00
2017-09-05T09:46:37.214Z,4.20
2017-09-05T09:49:06.007Z,4.70
2017-09-05T09:51:34.039Z,4.60
2017-09-05T09:54:02.060Z,3.60
2017-09-05T09:56:30.096Z,7.37
2017-09-05T09:58:59.071Z,4.40
2017-09-05T10:01:27.088Z,4.43
2017-09-05T10:03:55.111Z,5.87
2017-09-05T10:06:24.329Z,5.43
2017-09-05T10:08:54.324Z,5.77
2017-09-05T10:11:22.811Z,4.03
2017-09-05T10:13:52.347Z,3.47
2017-09-05T10:16:21.043Z,7.10
2017-09-05T10:18:49.063Z,3.77
2017-09-05T10:21:17.092Z,4.13
2017-09-05T10:23:45.107Z,3.40
2017-09-05T10:26:13.155Z,4.03
2017-09-05T10:28:41.563Z,4.13
2017-09-05T10:31:09.548Z,3.70
2017-09-05T10:33:41.675Z,3.07
2017-09-05T10:36:11.699Z,4.43
2017-09-05T10:38:40.887Z,3.63
2017-09-05T10:41:10.911Z,2.53
2017-09-05T10:43:38.927Z,4.70
2017-09-05T10:46:08.887Z,2.77
2017-09-05T10:48:37.895Z,3.00
2017-09-05T10:51:05.907Z,2.40
2017-09-05T10:53:34.831Z,2.80
2017-09-05T10:56:10.571Z,2.83
2017-09-05T10:58:41.739Z,2.40
2017-09-05T11:01:10.755Z,2.13
2017-09-05T11:03:43.395Z,2.50
2017-09-05T11:06:12.315Z,3.93
2017-09-05T11:08:41.287Z,2.50
2017-09-05T11:11:09.315Z,2.93
2017-09-05T11:13:37.338Z,2.50
2017-09-05T11:16:05.362Z,2.50
2017-09-05T11:18:33.383Z,3.70
2017-09-05T11:21:01.411Z,2.20
2017-09-05T11:23:30.767Z,1.97
2017-09-05T11:25:58.762Z,2.03
2017-09-05T11:28:26.783Z,2.37
2017-09-05T11:30:54.803Z,2.83
2017-09-05T11:33:22.818Z,5.57
2017-09-05T11:35:51.830Z,1.87
2017-09-05T11:38:22.143Z,2.07
2017-09-05T11:40:51.550Z,1.93
2017-09-05T11:43:19.579Z,2.03
2017-09-05T11:45:47.590Z,1.80
2017-09-05T11:48:16.031Z,1.80
2017-09-05T11:50:44.022Z,4.13
2017-09-05T11:53:12.039Z,3.93
2017-09-05T11:55:40.458Z,2.00
2017-09-05T11:58:08.510Z,2.17
2017-09-05T12:00:36.526Z,1.80
2017-09-05T12:03:04.550Z,2.27
2017-09-05T12:05:32.586Z,3.90
2017-09-05T12:08:00.902Z,1.73
2017-09-05T12:10:29.810Z,2.37
2017-09-05T12:12:58.815Z,5.20
2017-09-05T12:15:26.834Z,1.77
2017-09-05T12:17:55.642Z,4.37
2017-09-05T12:20:24.686Z,2.13
2017-09-05T12:22:52.721Z,1.60
2017-09-05T12:25:20.738Z,1.83
2017-09-05T12:27:49.538Z,1.73
2017-09-05T12:30:17.571Z,2.30
2017-09-05T12:32:45.594Z,3.00
2017-09-05T12:35:15.550Z,1.87
2017-09-05T12:37:44.534Z,1.73
2017-09-05T12:40:13.530Z,1.70
2017-09-05T12:42:41.546Z,2.23
2017-09-05T12:45:09.566Z,3.30
2017-09-05T12:47:37.590Z,1.70
2017-09-05T12:50:05.614Z,2.10
2017-09-05T12:52:33.641Z,11.43
2017-09-05T12:55:03.602Z,1.90
2017-09-05T12:57:32.602Z,3.47
2017-09-05T13:00:00.618Z,1.90
2017-09-05T13:02:29.538Z,1.70
2017-09-05T13:04:57.562Z,5.10
2017-09-05T13:07:25.582Z,2.37
2017-09-05T13:09:53.598Z,2.30
2017-09-05T13:12:21.634Z,2.67
2017-09-05T13:14:49.941Z,1.97
2017-09-05T13:17:18.722Z,2.10
2017-09-05T13:19:48.431Z,1.97
2017-09-05T13:22:16.464Z,1.90
2017-09-05T13:24:45.369Z,2.00
2017-09-05T13:27:13.405Z,2.37
2017-09-05T13:29:41.414Z,2.20
2017-09-05T13:32:09.441Z,2.17
2017-09-05T13:34:37.461Z,2.93
2017-09-05T13:37:05.481Z,2.17
2017-09-05T13:39:33.522Z,1.70
2017-09-05T13:42:05.033Z,2.60
2017-09-05T13:44:33.057Z,2.07
2017-09-05T13:47:04.441Z,2.27
2017-09-05T13:49:34.186Z,2.00
2017-09-05T13:52:04.901Z,2.10
2017-09-05T13:54:32.918Z,1.70
2017-09-05T13:57:00.937Z,1.70
2017-09-05T13:59:28.961Z,1.97
2017-09-05T14:01:56.977Z,2.50
2017-09-05T14:04:25.001Z,2.10
2017-09-05T14:06:53.041Z,2.30
2017-09-05T14:09:21.977Z,2.50
2017-09-05T14:11:51.197Z,1.70
2017-09-05T14:14:19.221Z,2.30
2017-09-05T14:16:47.245Z,2.33
2017-09-05T14:19:15.265Z,4.20
2017-09-05T14:21:43.745Z,2.23
2017-09-05T14:24:13.705Z,2.13
2017-09-05T14:26:41.713Z,2.23
2017-09-05T14:29:10.669Z,1.83
2017-09-05T14:31:38.689Z,2.23
2017-09-05T14:34:06.709Z,55.10
2017-09-05T14:36:40.324Z,2.10
2017-09-05T14:39:10.325Z,2.30
2017-09-05T14:41:39.305Z,2.47
2017-09-05T14:44:07.329Z,2.40
2017-09-05T14:46:35.353Z,15.50
2017-09-05T14:49:03.361Z,5.00
2017-09-05T14:51:31.389Z,2.37
2017-09-05T14:53:59.409Z,1.80
2017-09-05T14:56:27.433Z,1.97
2017-09-05T14:58:55.468Z,1.90
2017-09-05T15:01:24.477Z,1.87
2017-09-05T15:03:52.493Z,1.73
2017-09-05T15:06:21.261Z,2.73
2017-09-05T15:08:49.893Z,2.73
2017-09-05T15:11:18.825Z,5.43
2017-09-05T15:13:46.856Z,2.13
2017-09-05T15:16:16.772Z,2.17
2017-09-05T15:18:56.188Z,3.23
2017-09-05T15:21:32.129Z,2.13
2017-09-05T15:24:06.088Z,2.27
2017-09-05T15:26:35.099Z,2.37
2017-09-05T15:29:04.088Z,2.40
2017-09-05T15:31:34.140Z,2.00
2017-09-05T15:34:04.129Z,3.50
2017-09-05T15:36:32.148Z,2.50
2017-09-05T15:39:00.945Z,2.60
2017-09-05T15:41:28.957Z,6.67
2017-09-05T15:43:56.984Z,2.73
2017-09-05T15:46:25.932Z,4.07
2017-09-05T15:48:54.848Z,3.40
2017-09-05T15:51:23.789Z,2.43
2017-09-05T15:53:57.029Z,2.30
2017-09-05T15:56:25.061Z,2.50
2017-09-05T15:58:53.964Z,2.90
2017-09-05T16:01:21.992Z,2.53
2017-09-05T16:03:50.001Z,2.40
2017-09-05T16:06:18.973Z,2.67
2017-09-05T16:08:47.000Z,2.97
2017-09-05T16:11:15.937Z,2.20
2017-09-05T16:13:43.961Z,2.67
2017-09-05T16:16:13.932Z,3.17
2017-09-05T16:18:41.956Z,2.50
2017-09-05T16:21:09.968Z,2.47
2017-09-05T16:23:40.593Z,7.47
2017-09-05T16:26:10.612Z,2.00
2017-09-05T16:28:39.600Z,2.57
2017-09-05T16:31:07.636Z,2.27
2017-09-05T16:33:35.656Z,2.47
2017-09-05T16:36:04.637Z,4.07
2017-09-05T16:38:32.660Z,2.43
2017-09-05T16:41:00.680Z,2.13
2017-09-05T16:43:28.696Z,1.93
2017-09-05T16:45:58.403Z,2.40
2017-09-05T16:48:26.449Z,2.20
2017-09-05T16:50:55.224Z,3.47
2017-09-05T16:53:25.236Z,2.83
2017-09-05T16:55:53.256Z,3.30
2017-09-05T16:58:33.136Z,2.40
2017-09-05T17:01:03.160Z,2.70
2017-09-05T17:03:42.973Z,2.33
2017-09-05T17:06:10.992Z,2.70
2017-09-05T17:08:39.972Z,2.97
2017-09-05T17:11:07.996Z,4.37
2017-09-05T17:13:36.020Z,3.03
2017-09-05T17:16:04.040Z,3.00
2017-09-05T17:18:32.153Z,4.60
2017-09-05T17:21:00.168Z,2.70
2017-09-05T17:23:29.112Z,2.53
2017-09-05T17:25:57.192Z,2.90
2017-09-05T17:28:25.212Z,2.60
2017-09-05T17:30:55.160Z,2.33
2017-09-05T17:33:24.176Z,2.90
2017-09-05T17:35:55.504Z,2.90
2017-09-05T17:38:29.291Z,9.20
2017-09-05T17:40:57.321Z,3.00
2017-09-05T17:43:26.100Z,2.83
2017-09-05T17:45:54.992Z,5.93
2017-09-05T17:48:25.291Z,3.37
2017-09-05T17:50:54.300Z,2.90
2017-09-05T17:53:22.307Z,3.70
2017-09-05T17:55:51.227Z,3.50
2017-09-05T17:58:19.263Z,4.17
2017-09-05T18:00:47.283Z,3.83
2017-09-05T18:03:15.311Z,3.90
2017-09-05T18:05:43.351Z,3.97
2017-09-05T18:08:11.375Z,4.50
2017-09-05T18:10:39.407Z,4.80
2017-09-05T18:13:07.444Z,9.27
2017-09-05T18:15:36.415Z,6.33
2017-09-05T18:18:04.439Z,7.93
2017-09-05T18:20:33.387Z,7.40
2017-09-05T18:23:01.406Z,3.30
2017-09-05T18:25:30.771Z,3.83
2017-09-05T18:27:59.419Z,6.53
2017-09-05T18:30:27.627Z,4.33
2017-09-05T18:32:59.415Z,3.77
2017-09-05T18:35:27.923Z,4.30
2017-09-05T18:38:00.667Z,4.50
2017-09-05T18:40:33.979Z,3.50
2017-09-05T18:43:13.259Z,7.57
2017-09-05T18:45:42.691Z,5.80
2017-09-05T18:48:13.864Z,4.50
2017-09-05T18:50:47.192Z,3.87
2017-09-05T18:53:15.207Z,4.60
2017-09-05T18:55:43.227Z,3.70
2017-09-05T18:58:12.355Z,4.07
2017-09-05T19:00:41.127Z,3.60
2017-09-05T19:03:09.143Z,3.73
2017-09-05T19:05:37.195Z,3.20
2017-09-05T19:08:05.191Z,3.67
2017-09-05T19:10:33.214Z,4.10
2017-09-05T19:13:04.019Z,7.03
2017-09-05T19:15:32.045Z,4.03
2017-09-05T19:18:00.987Z,3.23
2017-09-05T19:20:30.171Z,5.30
2017-09-05T19:22:58.199Z,6.20
2017-09-05T19:25:26.974Z,4.23
2017-09-05T19:27:55.911Z,4.43
2017-09-05T19:30:24.915Z,4.50
2017-09-05T19:32:53.744Z,10.60
2017-09-05T19:35:22.543Z,3.70
2017-09-05T19:37:50.551Z,4.50
2017-09-05T19:40:18.558Z,4.07
2017-09-05T19:42:47.347Z,4.23
2017-09-05T19:45:16.131Z,4.33
2017-09-05T19:47:45.094Z,4.80
2017-09-05T19:50:13.147Z,4.00
2017-09-05T19:52:42.163Z,3.90
2017-09-05T19:55:10.190Z,3.90
2017-09-05T19:57:39.542Z,3.60
2017-09-05T20:00:08.466Z,4.67
2017-09-05T20:02:36.490Z,4.50
2017-09-05T20:05:04.522Z,5.00
2017-09-05T20:07:32.543Z,4.67
2017-09-05T20:10:00.562Z,4.67
2017-09-05T20:12:28.598Z,4.30
2017-09-05T20:14:57.558Z,4.80
2017-09-05T20:17:26.279Z,6.57
2017-09-05T20:19:55.234Z,4.93
2017-09-05T20:22:23.250Z,4.60
2017-09-05T20:24:55.194Z,4.70
2017-09-05T20:27:23.210Z,5.00
2017-09-05T20:29:51.222Z,5.30
2017-09-05T20:32:20.138Z,5.43
2017-09-05T20:34:48.930Z,5.47
2017-09-05T20:37:17.710Z,5.77
2017-09-05T20:39:46.514Z,7.37
2017-09-05T20:42:15.294Z,5.10
2017-09-05T20:44:43.333Z,5.03
2017-09-05T20:47:11.381Z,5.20
2017-09-05T20:49:40.174Z,6.43
2017-09-05T20:52:08.214Z,7.20
2017-09-05T20:54:37.050Z,6.20
2017-09-05T20:57:05.025Z,6.17
2017-09-05T20:59:34.926Z,6.50
2017-09-05T21:02:03.949Z,6.00
2017-09-05T21:04:31.966Z,6.70
2017-09-05T21:07:03.187Z,7.40
2017-09-05T21:09:31.202Z,7.13
2017-09-05T21:11:59.214Z,7.43
2017-09-05T21:14:27.242Z,11.20
2017-09-05T21:16:55.273Z,6.47
2017-09-05T21:19:24.306Z,6.37
2017-09-05T21:21:52.342Z,6.90
2017-09-05T21:24:20.364Z,7.80
2017-09-05T21:26:51.478Z,7.70
2017-09-05T21:29:20.277Z,7.33
2017-09-05T21:31:50.301Z,7.57
2017-09-05T21:34:20.333Z,6.83
2017-09-05T21:36:49.126Z,7.50
2017-09-05T21:39:17.153Z,7.90
2017-09-05T21:41:45.181Z,7.93
2017-09-05T21:44:13.204Z,7.93
2017-09-05T21:46:48.134Z,7.87
2017-09-05T21:49:20.101Z,8.07
2017-09-05T21:51:48.541Z,7.70
2017-09-05T21:54:16.565Z,7.30
2017-09-05T21:56:44.581Z,8.27
2017-09-05T21:59:13.647Z,8.43
2017-09-05T22:01:42.442Z,6.87
2017-09-05T22:04:11.401Z,16.73
2017-09-05T22:06:40.385Z,8.30
2017-09-05T22:09:11.150Z,8.10
2017-09-05T22:11:40.949Z,8.77
2017-09-05T22:14:17.409Z,8.20
2017-09-05T22:16:46.393Z,8.27
2017-09-05T22:19:20.001Z,8.77
2017-09-05T22:21:49.021Z,11.70
2017-09-05T22:24:17.057Z,8.60
2017-09-05T22:26:50.817Z,8.13
2017-09-05T22:29:18.836Z,9.30
2017-09-05T22:31:47.817Z,12.03
2017-09-05T22:34:15.877Z,9.17
2017-09-05T22:36:43.906Z,8.77
2017-09-05T22:39:11.921Z,8.57
2017-09-05T22:41:39.965Z,7.70
2017-09-05T22:44:08.988Z,10.27
2017-09-05T22:46:39.001Z,7.93
2017-09-05T22:49:08.012Z,8.00
2017-09-05T22:51:37.001Z,7.67
2017-09-05T22:54:05.016Z,9.03
2017-09-05T22:56:34.981Z,7.97
2017-09-05T22:59:03.017Z,8.30
2017-09-05T23:01:31.045Z,8.67
2017-09-05T23:03:59.096Z,8.67
2017-09-05T23:06:27.108Z,9.23
2017-09-05T23:08:55.145Z,9.13
2017-09-05T23:11:24.960Z,8.30
2017-09-05T23:13:52.988Z,9.13
2017-09-05T23:16:22.001Z,9.13
2017-09-05T23:18:50.036Z,8.73
2017-09-05T23:21:18.053Z,8.40
2017-09-05T23:23:46.080Z,10.03
2017-09-05T23:26:14.120Z,8.83
2017-09-05T23:28:42.912Z,8.93
2017-09-05T23:31:10.932Z,9.00
2017-09-05T23:33:38.968Z,8.80
2017-09-05T23:36:08.000Z,8.90
2017-09-05T23:38:36.036Z,8.53
2017-09-05T23:41:06.003Z,9.80
2017-09-05T23:43:34.028Z,9.33
2017-09-05T23:46:02.052Z,9.70
2017-09-05T23:48:30.093Z,9.63
2017-09-05T23:50:59.016Z,9.20
2017-09-05T23:53:27.812Z,9.57
2017-09-05T23:55:55.844Z,8.83
2017-09-05T23:58:23.872Z,9.53
